sensor_id;sensor_type;location;lat;lon;timestamp;P1;durP1;ratioP1;P2;durP2;ratioP2
44925;SDS011;30662;51.210;7.656;2022-09-09T00:02:25;2.60;;;0.88;;
44925;SDS011;30662;51.210;7.656;2022-09-09T00:05:00;3.22;;;0.98;;
44925;SDS011;30662;51.210;7.656;2022-09-09T00:07:50;3.08;;;1.00;;
44925;SDS011;30662;51.210;7.656;2022-09-09T00:15:38;5.25;;;1.23;;
44925;SDS011;30662;51.210;7.656;2022-09-09T00:21:13;3.72;;;1.00;;
44925;SDS011;30662;51.210;7.656;2022-09-09T00:23:48;5.07;;;1.17;;
44925;SDS011;30662;51.210;7.656;2022-09-09T00:29:12;2.90;;;0.95;;
44925;SDS011;30662;51.210;7.656;2022-09-09T00:31:48;3.63;;;1.13;;
44925;SDS011;30662;51.210;7.656;2022-09-09T00:34:16;3.08;;;1.13;;
44925;SDS011;30662;51.210;7.656;2022-09-09T00:36:45;5.03;;;1.10;;
44925;SDS011;30662;51.210;7.656;2022-09-09T00:39:34;3.25;;;1.38;;
44925;SDS011;30662;51.210;7.656;2022-09-09T00:42:18;4.85;;;0.90;;
44925;SDS011;30662;51.210;7.656;2022-09-09T00:47:43;4.00;;;1.13;;
44925;SDS011;30662;51.210;7.656;2022-09-09T00:50:17;3.80;;;1.13;;
44925;SDS011;30662;51.210;7.656;2022-09-09T00:53:05;5.55;;;1.10;;
44925;SDS011;30662;51.210;7.656;2022-09-09T00:55:48;5.20;;;0.98;;
44925;SDS011;30662;51.210;7.656;2022-09-09T00:58:19;4.25;;;1.35;;
44925;SDS011;30662;51.210;7.656;2022-09-09T01:00:52;6.60;;;1.20;;
44925;SDS011;30662;51.210;7.656;2022-09-09T01:03:36;5.65;;;1.25;;
44925;SDS011;30662;51.210;7.656;2022-09-09T01:11:49;5.30;;;1.17;;
44925;SDS011;30662;51.210;7.656;2022-09-09T01:17:12;4.60;;;1.30;;
44925;SDS011;30662;51.210;7.656;2022-09-09T01:22:19;3.33;;;1.45;;
44925;SDS011;30662;51.210;7.656;2022-09-09T01:25:19;3.58;;;1.70;;
44925;SDS011;30662;51.210;7.656;2022-09-09T01:27:51;5.07;;;1.42;;
44925;SDS011;30662;51.210;7.656;2022-09-09T01:30:21;6.60;;;1.42;;
44925;SDS011;30662;51.210;7.656;2022-09-09T01:32:52;7.78;;;1.85;;
44925;SDS011;30662;51.210;7.656;2022-09-09T01:38:08;5.50;;;1.23;;
44925;SDS011;30662;51.210;7.656;2022-09-09T01:40:34;3.75;;;1.30;;
44925;SDS011;30662;51.210;7.656;2022-09-09T01:43:01;7.68;;;1.50;;
44925;SDS011;30662;51.210;7.656;2022-09-09T01:45:27;3.92;;;1.42;;
44925;SDS011;30662;51.210;7.656;2022-09-09T01:47:53;4.45;;;1.70;;
44925;SDS011;30662;51.210;7.656;2022-09-09T01:50:19;6.43;;;1.42;;
44925;SDS011;30662;51.210;7.656;2022-09-09T01:52:47;4.47;;;1.42;;
44925;SDS011;30662;51.210;7.656;2022-09-09T01:55:16;6.78;;;2.05;;
44925;SDS011;30662;51.210;7.656;2022-09-09T02:00:24;4.03;;;1.65;;
44925;SDS011;30662;51.210;7.656;2022-09-09T02:02:58;7.28;;;2.20;;
44925;SDS011;30662;51.210;7.656;2022-09-09T02:05:35;6.45;;;1.88;;
44925;SDS011;30662;51.210;7.656;2022-09-09T02:08:17;3.67;;;1.45;;
44925;SDS011;30662;51.210;7.656;2022-09-09T02:10:52;5.50;;;1.75;;
44925;SDS011;30662;51.210;7.656;2022-09-09T02:13:23;5.45;;;2.20;;
44925;SDS011;30662;51.210;7.656;2022-09-09T02:15:52;4.80;;;2.25;;
44925;SDS011;30662;51.210;7.656;2022-09-09T02:18:24;7.05;;;1.90;;
44925;SDS011;30662;51.210;7.656;2022-09-09T02:20:56;6.65;;;1.95;;
44925;SDS011;30662;51.210;7.656;2022-09-09T02:23:23;6.78;;;2.17;;
44925;SDS011;30662;51.210;7.656;2022-09-09T02:25:50;6.63;;;1.98;;
44925;SDS011;30662;51.210;7.656;2022-09-09T02:28:19;5.25;;;2.40;;
44925;SDS011;30662;51.210;7.656;2022-09-09T02:30:48;6.72;;;1.92;;
44925;SDS011;30662;51.210;7.656;2022-09-09T02:33:24;5.90;;;2.42;;
44925;SDS011;30662;51.210;7.656;2022-09-09T02:35:53;7.68;;;2.50;;
44925;SDS011;30662;51.210;7.656;2022-09-09T02:38:29;3.97;;;1.92;;
44925;SDS011;30662;51.210;7.656;2022-09-09T02:41:01;6.45;;;2.40;;
44925;SDS011;30662;51.210;7.656;2022-09-09T02:43:33;6.50;;;2.25;;
44925;SDS011;30662;51.210;7.656;2022-09-09T02:48:48;6.00;;;2.20;;
44925;SDS011;30662;51.210;7.656;2022-09-09T02:53:59;6.00;;;1.85;;
44925;SDS011;30662;51.210;7.656;2022-09-09T02:56:38;5.88;;;1.90;;
44925;SDS011;30662;51.210;7.656;2022-09-09T02:59:07;7.05;;;2.08;;
44925;SDS011;30662;51.210;7.656;2022-09-09T03:01:33;6.03;;;1.92;;
44925;SDS011;30662;51.210;7.656;2022-09-09T03:04:01;3.70;;;1.90;;
44925;SDS011;30662;51.210;7.656;2022-09-09T03:06:30;7.05;;;2.75;;
44925;SDS011;30662;51.210;7.656;2022-09-09T03:08:56;6.80;;;1.95;;
44925;SDS011;30662;51.210;7.656;2022-09-09T03:11:24;3.65;;;1.95;;
44925;SDS011;30662;51.210;7.656;2022-09-09T03:13:50;7.90;;;2.28;;
44925;SDS011;30662;51.210;7.656;2022-09-09T03:16:16;7.90;;;2.13;;
44925;SDS011;30662;51.210;7.656;2022-09-09T03:18:41;4.13;;;2.40;;
44925;SDS011;30662;51.210;7.656;2022-09-09T03:21:08;6.90;;;2.20;;
44925;SDS011;30662;51.210;7.656;2022-09-09T03:23:33;7.97;;;2.60;;
44925;SDS011;30662;51.210;7.656;2022-09-09T03:25:59;9.38;;;2.25;;
44925;SDS011;30662;51.210;7.656;2022-09-09T03:28:25;6.85;;;3.33;;
44925;SDS011;30662;51.210;7.656;2022-09-09T03:31:05;4.30;;;2.20;;
44925;SDS011;30662;51.210;7.656;2022-09-09T03:33:31;3.80;;;2.08;;
44925;SDS011;30662;51.210;7.656;2022-09-09T03:35:57;5.00;;;1.80;;
44925;SDS011;30662;51.210;7.656;2022-09-09T03:38:23;9.40;;;2.42;;
44925;SDS011;30662;51.210;7.656;2022-09-09T03:40:53;3.60;;;1.92;;
44925;SDS011;30662;51.210;7.656;2022-09-09T03:43:24;6.80;;;2.30;;
44925;SDS011;30662;51.210;7.656;2022-09-09T03:45:50;6.32;;;2.17;;
44925;SDS011;30662;51.210;7.656;2022-09-09T03:48:17;8.13;;;2.33;;
44925;SDS011;30662;51.210;7.656;2022-09-09T03:50:45;6.10;;;2.38;;
44925;SDS011;30662;51.210;7.656;2022-09-09T03:53:16;6.03;;;2.55;;
44925;SDS011;30662;51.210;7.656;2022-09-09T03:55:43;8.63;;;2.50;;
44925;SDS011;30662;51.210;7.656;2022-09-09T03:58:14;4.82;;;2.30;;
44925;SDS011;30662;51.210;7.656;2022-09-09T04:00:40;6.55;;;2.90;;
44925;SDS011;30662;51.210;7.656;2022-09-09T04:03:09;5.40;;;2.42;;
44925;SDS011;30662;51.210;7.656;2022-09-09T04:05:35;5.38;;;1.90;;
44925;SDS011;30662;51.210;7.656;2022-09-09T04:08:07;7.80;;;2.40;;
44925;SDS011;30662;51.210;7.656;2022-09-09T04:10:34;11.77;;;2.90;;
44925;SDS011;30662;51.210;7.656;2022-09-09T04:13:03;6.38;;;1.95;;
44925;SDS011;30662;51.210;7.656;2022-09-09T04:15:30;7.38;;;2.45;;
44925;SDS011;30662;51.210;7.656;2022-09-09T04:17:56;5.80;;;2.05;;
44925;SDS011;30662;51.210;7.656;2022-09-09T04:20:22;6.97;;;2.00;;
44925;SDS011;30662;51.210;7.656;2022-09-09T04:22:51;7.65;;;2.13;;
44925;SDS011;30662;51.210;7.656;2022-09-09T04:25:16;6.70;;;2.00;;
44925;SDS011;30662;51.210;7.656;2022-09-09T04:27:42;8.45;;;2.20;;
44925;SDS011;30662;51.210;7.656;2022-09-09T04:30:08;6.78;;;2.03;;
44925;SDS011;30662;51.210;7.656;2022-09-09T04:32:35;4.10;;;1.75;;
44925;SDS011;30662;51.210;7.656;2022-09-09T04:35:02;7.03;;;2.00;;
44925;SDS011;30662;51.210;7.656;2022-09-09T04:37:28;4.57;;;1.90;;
44925;SDS011;30662;51.210;7.656;2022-09-09T04:39:54;11.20;;;3.13;;
44925;SDS011;30662;51.210;7.656;2022-09-09T04:42:20;7.32;;;2.63;;
44925;SDS011;30662;51.210;7.656;2022-09-09T04:44:46;7.50;;;2.95;;
44925;SDS011;30662;51.210;7.656;2022-09-09T04:47:11;6.68;;;2.80;;
44925;SDS011;30662;51.210;7.656;2022-09-09T04:49:38;7.13;;;2.08;;
44925;SDS011;30662;51.210;7.656;2022-09-09T04:52:04;7.50;;;2.25;;
44925;SDS011;30662;51.210;7.656;2022-09-09T04:54:30;3.72;;;1.80;;
44925;SDS011;30662;51.210;7.656;2022-09-09T04:56:56;7.75;;;2.30;;
44925;SDS011;30662;51.210;7.656;2022-09-09T04:59:22;4.75;;;1.73;;
44925;SDS011;30662;51.210;7.656;2022-09-09T05:01:48;10.82;;;2.45;;
44925;SDS011;30662;51.210;7.656;2022-09-09T05:04:15;11.45;;;3.10;;
44925;SDS011;30662;51.210;7.656;2022-09-09T05:06:41;5.15;;;1.75;;
44925;SDS011;30662;51.210;7.656;2022-09-09T05:09:08;2.78;;;1.75;;
44925;SDS011;30662;51.210;7.656;2022-09-09T05:11:34;7.05;;;1.98;;
44925;SDS011;30662;51.210;7.656;2022-09-09T05:14:03;5.00;;;2.22;;
44925;SDS011;30662;51.210;7.656;2022-09-09T05:16:30;6.97;;;2.20;;
44925;SDS011;30662;51.210;7.656;2022-09-09T05:18:56;3.25;;;1.70;;
44925;SDS011;30662;51.210;7.656;2022-09-09T05:21:23;9.98;;;2.90;;
44925;SDS011;30662;51.210;7.656;2022-09-09T05:23:51;3.95;;;1.75;;
44925;SDS011;30662;51.210;7.656;2022-09-09T05:26:18;8.68;;;2.25;;
44925;SDS011;30662;51.210;7.656;2022-09-09T05:28:46;6.63;;;1.65;;
44925;SDS011;30662;51.210;7.656;2022-09-09T05:31:13;8.05;;;1.95;;
44925;SDS011;30662;51.210;7.656;2022-09-09T05:33:40;8.98;;;2.40;;
44925;SDS011;30662;51.210;7.656;2022-09-09T05:36:12;5.07;;;2.03;;
44925;SDS011;30662;51.210;7.656;2022-09-09T05:38:40;6.65;;;1.85;;
44925;SDS011;30662;51.210;7.656;2022-09-09T05:41:06;6.47;;;2.03;;
44925;SDS011;30662;51.210;7.656;2022-09-09T05:43:33;9.15;;;1.98;;
44925;SDS011;30662;51.210;7.656;2022-09-09T05:46:05;9.13;;;3.67;;
44925;SDS011;30662;51.210;7.656;2022-09-09T05:48:35;6.82;;;2.70;;
44925;SDS011;30662;51.210;7.656;2022-09-09T05:51:03;5.38;;;1.83;;
44925;SDS011;30662;51.210;7.656;2022-09-09T05:53:32;4.47;;;1.80;;
44925;SDS011;30662;51.210;7.656;2022-09-09T05:56:03;5.38;;;1.60;;
44925;SDS011;30662;51.210;7.656;2022-09-09T05:58:33;5.80;;;1.90;;
44925;SDS011;30662;51.210;7.656;2022-09-09T06:01:00;6.78;;;2.22;;
44925;SDS011;30662;51.210;7.656;2022-09-09T06:03:35;4.05;;;1.23;;
44925;SDS011;30662;51.210;7.656;2022-09-09T06:06:03;3.08;;;1.90;;
44925;SDS011;30662;51.210;7.656;2022-09-09T06:08:31;6.47;;;1.95;;
44925;SDS011;30662;51.210;7.656;2022-09-09T06:11:01;5.70;;;2.38;;
44925;SDS011;30662;51.210;7.656;2022-09-09T06:13:31;4.32;;;2.20;;
44925;SDS011;30662;51.210;7.656;2022-09-09T06:15:58;6.13;;;2.40;;
44925;SDS011;30662;51.210;7.656;2022-09-09T06:18:25;5.88;;;1.98;;
44925;SDS011;30662;51.210;7.656;2022-09-09T06:23:24;5.90;;;1.90;;
44925;SDS011;30662;51.210;7.656;2022-09-09T06:25:51;5.18;;;2.28;;
44925;SDS011;30662;51.210;7.656;2022-09-09T06:28:17;6.22;;;2.30;;
44925;SDS011;30662;51.210;7.656;2022-09-09T06:30:44;6.55;;;1.90;;
44925;SDS011;30662;51.210;7.656;2022-09-09T06:33:10;10.23;;;2.15;;
44925;SDS011;30662;51.210;7.656;2022-09-09T06:35:36;9.18;;;1.92;;
44925;SDS011;30662;51.210;7.656;2022-09-09T06:38:02;7.75;;;2.53;;
44925;SDS011;30662;51.210;7.656;2022-09-09T06:40:29;11.25;;;2.58;;
44925;SDS011;30662;51.210;7.656;2022-09-09T06:42:59;6.20;;;2.08;;
44925;SDS011;30662;51.210;7.656;2022-09-09T06:45:25;6.93;;;2.08;;
44925;SDS011;30662;51.210;7.656;2022-09-09T06:47:51;7.90;;;1.77;;
44925;SDS011;30662;51.210;7.656;2022-09-09T06:50:19;6.13;;;2.08;;
44925;SDS011;30662;51.210;7.656;2022-09-09T06:52:46;9.10;;;1.95;;
44925;SDS011;30662;51.210;7.656;2022-09-09T06:55:13;6.80;;;2.35;;
44925;SDS011;30662;51.210;7.656;2022-09-09T06:57:41;11.48;;;2.55;;
44925;SDS011;30662;51.210;7.656;2022-09-09T07:00:07;7.35;;;3.50;;
44925;SDS011;30662;51.210;7.656;2022-09-09T07:02:33;7.10;;;2.45;;
44925;SDS011;30662;51.210;7.656;2022-09-09T07:05:04;5.45;;;2.10;;
44925;SDS011;30662;51.210;7.656;2022-09-09T07:07:30;5.43;;;2.67;;
44925;SDS011;30662;51.210;7.656;2022-09-09T07:09:56;7.82;;;2.20;;
44925;SDS011;30662;51.210;7.656;2022-09-09T07:12:21;9.30;;;3.45;;
44925;SDS011;30662;51.210;7.656;2022-09-09T07:14:47;7.18;;;2.28;;
44925;SDS011;30662;51.210;7.656;2022-09-09T07:17:13;6.75;;;2.42;;
44925;SDS011;30662;51.210;7.656;2022-09-09T07:19:39;7.97;;;2.13;;
44925;SDS011;30662;51.210;7.656;2022-09-09T07:22:05;6.65;;;1.90;;
44925;SDS011;30662;51.210;7.656;2022-09-09T07:24:31;9.25;;;2.17;;
44925;SDS011;30662;51.210;7.656;2022-09-09T07:26:57;4.75;;;1.65;;
44925;SDS011;30662;51.210;7.656;2022-09-09T07:29:24;9.13;;;2.22;;
44925;SDS011;30662;51.210;7.656;2022-09-09T07:31:50;9.40;;;2.40;;
44925;SDS011;30662;51.210;7.656;2022-09-09T07:34:17;9.88;;;2.30;;
44925;SDS011;30662;51.210;7.656;2022-09-09T07:36:43;8.82;;;1.98;;
44925;SDS011;30662;51.210;7.656;2022-09-09T07:39:10;7.22;;;2.00;;
44925;SDS011;30662;51.210;7.656;2022-09-09T07:41:43;7.10;;;2.17;;
44925;SDS011;30662;51.210;7.656;2022-09-09T07:44:12;4.63;;;2.03;;
44925;SDS011;30662;51.210;7.656;2022-09-09T07:46:42;3.85;;;1.40;;
44925;SDS011;30662;51.210;7.656;2022-09-09T07:49:10;5.03;;;1.73;;
44925;SDS011;30662;51.210;7.656;2022-09-09T07:51:37;8.00;;;1.88;;
44925;SDS011;30662;51.210;7.656;2022-09-09T07:54:07;4.47;;;1.42;;
44925;SDS011;30662;51.210;7.656;2022-09-09T07:56:37;7.63;;;1.83;;
44925;SDS011;30662;51.210;7.656;2022-09-09T07:59:05;8.13;;;1.83;;
44925;SDS011;30662;51.210;7.656;2022-09-09T08:01:33;6.85;;;1.67;;
44925;SDS011;30662;51.210;7.656;2022-09-09T08:04:05;6.43;;;2.28;;
44925;SDS011;30662;51.210;7.656;2022-09-09T08:06:38;8.88;;;1.85;;
44925;SDS011;30662;51.210;7.656;2022-09-09T08:09:06;5.00;;;1.70;;
44925;SDS011;30662;51.210;7.656;2022-09-09T08:11:32;6.25;;;1.63;;
44925;SDS011;30662;51.210;7.656;2022-09-09T08:14:04;8.73;;;1.95;;
44925;SDS011;30662;51.210;7.656;2022-09-09T08:16:32;8.00;;;1.88;;
44925;SDS011;30662;51.210;7.656;2022-09-09T08:19:02;6.90;;;1.83;;
44925;SDS011;30662;51.210;7.656;2022-09-09T08:21:29;6.70;;;1.90;;
44925;SDS011;30662;51.210;7.656;2022-09-09T08:23:58;6.30;;;1.98;;
44925;SDS011;30662;51.210;7.656;2022-09-09T08:26:26;9.57;;;1.73;;
44925;SDS011;30662;51.210;7.656;2022-09-09T08:28:55;5.80;;;1.63;;
44925;SDS011;30662;51.210;7.656;2022-09-09T08:31:24;7.03;;;1.77;;
44925;SDS011;30662;51.210;7.656;2022-09-09T08:33:54;6.50;;;1.83;;
44925;SDS011;30662;51.210;7.656;2022-09-09T08:36:22;6.03;;;2.08;;
44925;SDS011;30662;51.210;7.656;2022-09-09T08:38:51;9.65;;;1.60;;
44925;SDS011;30662;51.210;7.656;2022-09-09T08:43:47;7.28;;;2.10;;
44925;SDS011;30662;51.210;7.656;2022-09-09T08:52:31;6.18;;;1.48;;
44925;SDS011;30662;51.210;7.656;2022-09-09T08:57:36;6.15;;;1.20;;
44925;SDS011;30662;51.210;7.656;2022-09-09T09:00:02;6.15;;;1.92;;
44925;SDS011;30662;51.210;7.656;2022-09-09T09:02:42;6.43;;;1.33;;
44925;SDS011;30662;51.210;7.656;2022-09-09T09:05:28;4.43;;;1.65;;
44925;SDS011;30662;51.210;7.656;2022-09-09T09:10:42;6.82;;;1.30;;
44925;SDS011;30662;51.210;7.656;2022-09-09T09:13:20;11.05;;;2.10;;
44925;SDS011;30662;51.210;7.656;2022-09-09T09:15:54;4.93;;;1.27;;
44925;SDS011;30662;51.210;7.656;2022-09-09T09:24:24;8.40;;;1.50;;
44925;SDS011;30662;51.210;7.656;2022-09-09T09:26:58;7.95;;;1.50;;
44925;SDS011;30662;51.210;7.656;2022-09-09T09:29:37;8.38;;;1.70;;
44925;SDS011;30662;51.210;7.656;2022-09-09T09:32:25;6.10;;;1.52;;
44925;SDS011;30662;51.210;7.656;2022-09-09T09:34:56;7.90;;;2.80;;
44925;SDS011;30662;51.210;7.656;2022-09-09T09:37:42;5.15;;;1.50;;
44925;SDS011;30662;51.210;7.656;2022-09-09T09:40:32;6.78;;;1.83;;
44925;SDS011;30662;51.210;7.656;2022-09-09T09:43:01;5.60;;;1.35;;
44925;SDS011;30662;51.210;7.656;2022-09-09T09:45:42;6.85;;;1.52;;
44925;SDS011;30662;51.210;7.656;2022-09-09T09:48:33;6.38;;;1.50;;
44925;SDS011;30662;51.210;7.656;2022-09-09T09:51:01;3.45;;;1.05;;
44925;SDS011;30662;51.210;7.656;2022-09-09T09:53:36;5.15;;;1.20;;
44925;SDS011;30662;51.210;7.656;2022-09-09T09:56:08;5.60;;;1.50;;
44925;SDS011;30662;51.210;7.656;2022-09-09T10:01:44;6.05;;;1.20;;
44925;SDS011;30662;51.210;7.656;2022-09-09T10:04:16;7.47;;;1.25;;
44925;SDS011;30662;51.210;7.656;2022-09-09T10:06:49;5.57;;;1.35;;
44925;SDS011;30662;51.210;7.656;2022-09-09T10:09:28;4.57;;;1.08;;
44925;SDS011;30662;51.210;7.656;2022-09-09T10:14:55;4.10;;;1.42;;
44925;SDS011;30662;51.210;7.656;2022-09-09T10:20:51;4.38;;;0.98;;
44925;SDS011;30662;51.210;7.656;2022-09-09T10:48:38;3.70;;;1.00;;
44925;SDS011;30662;51.210;7.656;2022-09-09T10:57:45;6.00;;;1.23;;
44925;SDS011;30662;51.210;7.656;2022-09-09T11:02:45;8.35;;;1.58;;
44925;SDS011;30662;51.210;7.656;2022-09-09T11:05:21;4.97;;;0.88;;
44925;SDS011;30662;51.210;7.656;2022-09-09T11:08:04;4.07;;;0.95;;
44925;SDS011;30662;51.210;7.656;2022-09-09T11:13:05;3.88;;;0.77;;
44925;SDS011;30662;51.210;7.656;2022-09-09T11:15:42;3.85;;;0.82;;
44925;SDS011;30662;51.210;7.656;2022-09-09T11:18:30;5.38;;;0.95;;
44925;SDS011;30662;51.210;7.656;2022-09-09T11:21:03;5.93;;;1.02;;
44925;SDS011;30662;51.210;7.656;2022-09-09T11:23:39;3.22;;;0.68;;
44925;SDS011;30662;51.210;7.656;2022-09-09T11:26:11;5.28;;;0.80;;
44925;SDS011;30662;51.210;7.656;2022-09-09T11:32:18;3.55;;;0.93;;
44925;SDS011;30662;51.210;7.656;2022-09-09T11:34:56;4.18;;;1.10;;
44925;SDS011;30662;51.210;7.656;2022-09-09T11:40:00;2.72;;;0.77;;
44925;SDS011;30662;51.210;7.656;2022-09-09T11:42:45;2.38;;;0.77;;
44925;SDS011;30662;51.210;7.656;2022-09-09T11:45:20;4.47;;;1.00;;
44925;SDS011;30662;51.210;7.656;2022-09-09T11:47:51;9.10;;;1.42;;
44925;SDS011;30662;51.210;7.656;2022-09-09T11:52:45;3.92;;;1.85;;
44925;SDS011;30662;51.210;7.656;2022-09-09T11:55:26;3.05;;;0.90;;
44925;SDS011;30662;51.210;7.656;2022-09-09T11:57:58;7.80;;;1.33;;
44925;SDS011;30662;51.210;7.656;2022-09-09T12:00:58;9.20;;;1.08;;
44925;SDS011;30662;51.210;7.656;2022-09-09T12:03:36;3.58;;;0.73;;
44925;SDS011;30662;51.210;7.656;2022-09-09T12:09:12;5.50;;;1.25;;
44925;SDS011;30662;51.210;7.656;2022-09-09T12:11:53;5.50;;;0.85;;
44925;SDS011;30662;51.210;7.656;2022-09-09T12:17:36;3.22;;;0.80;;
44925;SDS011;30662;51.210;7.656;2022-09-09T12:22:56;4.03;;;1.08;;
44925;SDS011;30662;51.210;7.656;2022-09-09T12:31:26;2.65;;;0.82;;
44925;SDS011;30662;51.210;7.656;2022-09-09T12:34:22;3.33;;;0.93;;
44925;SDS011;30662;51.210;7.656;2022-09-09T12:36:58;6.43;;;0.90;;
44925;SDS011;30662;51.210;7.656;2022-09-09T12:39:33;2.63;;;0.70;;
44925;SDS011;30662;51.210;7.656;2022-09-09T12:42:03;8.88;;;1.38;;
44925;SDS011;30662;51.210;7.656;2022-09-09T12:44:29;2.80;;;1.13;;
44925;SDS011;30662;51.210;7.656;2022-09-09T12:46:58;5.10;;;1.60;;
44925;SDS011;30662;51.210;7.656;2022-09-09T12:49:32;3.42;;;0.90;;
44925;SDS011;30662;51.210;7.656;2022-09-09T12:52:03;5.00;;;1.27;;
44925;SDS011;30662;51.210;7.656;2022-09-09T12:54:35;2.63;;;0.93;;
44925;SDS011;30662;51.210;7.656;2022-09-09T12:57:02;3.88;;;0.70;;
44925;SDS011;30662;51.210;7.656;2022-09-09T12:59:39;3.58;;;0.77;;
44925;SDS011;30662;51.210;7.656;2022-09-09T13:02:24;2.85;;;0.77;;
44925;SDS011;30662;51.210;7.656;2022-09-09T13:04:52;4.43;;;1.35;;
44925;SDS011;30662;51.210;7.656;2022-09-09T13:07:18;3.20;;;0.73;;
44925;SDS011;30662;51.210;7.656;2022-09-09T13:09:45;2.03;;;0.77;;
44925;SDS011;30662;51.210;7.656;2022-09-09T13:12:13;3.72;;;0.82;;
44925;SDS011;30662;51.210;7.656;2022-09-09T13:14:43;2.58;;;0.70;;
44925;SDS011;30662;51.210;7.656;2022-09-09T13:17:17;2.63;;;0.90;;
44925;SDS011;30662;51.210;7.656;2022-09-09T13:19:46;2.95;;;0.65;;
44925;SDS011;30662;51.210;7.656;2022-09-09T13:30:55;2.40;;;0.90;;
44925;SDS011;30662;51.210;7.656;2022-09-09T13:33:37;2.95;;;0.80;;
44925;SDS011;30662;51.210;7.656;2022-09-09T13:36:05;2.15;;;0.75;;
44925;SDS011;30662;51.210;7.656;2022-09-09T13:38:37;2.05;;;0.50;;
44925;SDS011;30662;51.210;7.656;2022-09-09T13:41:19;1.67;;;0.70;;
44925;SDS011;30662;51.210;7.656;2022-09-09T13:43:47;1.48;;;0.50;;
44925;SDS011;30662;51.210;7.656;2022-09-09T13:54:05;3.38;;;0.63;;
44925;SDS011;30662;51.210;7.656;2022-09-09T13:56:35;7.45;;;4.40;;
44925;SDS011;30662;51.210;7.656;2022-09-09T13:59:04;1.77;;;0.60;;
44925;SDS011;30662;51.210;7.656;2022-09-09T14:01:35;3.78;;;1.00;;
44925;SDS011;30662;51.210;7.656;2022-09-09T14:04:01;3.97;;;0.60;;
44925;SDS011;30662;51.210;7.656;2022-09-09T14:06:27;4.47;;;0.90;;
44925;SDS011;30662;51.210;7.656;2022-09-09T14:08:54;2.53;;;0.80;;
44925;SDS011;30662;51.210;7.656;2022-09-09T14:11:20;2.65;;;0.70;;
44925;SDS011;30662;51.210;7.656;2022-09-09T14:13:47;4.40;;;0.70;;
44925;SDS011;30662;51.210;7.656;2022-09-09T14:16:15;2.42;;;0.77;;
44925;SDS011;30662;51.210;7.656;2022-09-09T14:18:43;4.85;;;1.02;;
44925;SDS011;30662;51.210;7.656;2022-09-09T14:21:10;2.47;;;0.70;;
44925;SDS011;30662;51.210;7.656;2022-09-09T14:23:36;2.60;;;0.90;;
44925;SDS011;30662;51.210;7.656;2022-09-09T14:26:04;3.13;;;0.82;;
44925;SDS011;30662;51.210;7.656;2022-09-09T14:28:33;2.25;;;0.70;;
44925;SDS011;30662;51.210;7.656;2022-09-09T14:31:20;6.68;;;1.33;;
44925;SDS011;30662;51.210;7.656;2022-09-09T14:33:46;3.05;;;0.98;;
44925;SDS011;30662;51.210;7.656;2022-09-09T14:36:12;5.85;;;0.98;;
44925;SDS011;30662;51.210;7.656;2022-09-09T14:38:38;8.52;;;1.65;;
44925;SDS011;30662;51.210;7.656;2022-09-09T14:41:15;2.97;;;1.20;;
44925;SDS011;30662;51.210;7.656;2022-09-09T14:43:43;6.00;;;1.52;;
44925;SDS011;30662;51.210;7.656;2022-09-09T14:46:16;3.40;;;1.10;;
44925;SDS011;30662;51.210;7.656;2022-09-09T14:48:44;3.33;;;0.93;;
44925;SDS011;30662;51.210;7.656;2022-09-09T14:51:12;4.32;;;1.25;;
44925;SDS011;30662;51.210;7.656;2022-09-09T14:53:40;3.53;;;1.25;;
44925;SDS011;30662;51.210;7.656;2022-09-09T14:56:08;4.75;;;1.13;;
44925;SDS011;30662;51.210;7.656;2022-09-09T14:58:36;4.65;;;1.35;;
44925;SDS011;30662;51.210;7.656;2022-09-09T15:01:04;7.60;;;1.70;;
44925;SDS011;30662;51.210;7.656;2022-09-09T15:03:30;6.88;;;1.40;;
44925;SDS011;30662;51.210;7.656;2022-09-09T15:05:56;4.28;;;1.20;;
44925;SDS011;30662;51.210;7.656;2022-09-09T15:08:24;4.72;;;1.15;;
44925;SDS011;30662;51.210;7.656;2022-09-09T15:10:58;3.63;;;1.05;;
44925;SDS011;30662;51.210;7.656;2022-09-09T15:13:25;3.28;;;1.10;;
44925;SDS011;30662;51.210;7.656;2022-09-09T15:15:50;6.07;;;1.42;;
44925;SDS011;30662;51.210;7.656;2022-09-09T15:18:17;3.95;;;1.35;;
44925;SDS011;30662;51.210;7.656;2022-09-09T15:20:46;5.50;;;1.00;;
44925;SDS011;30662;51.210;7.656;2022-09-09T15:23:13;1.83;;;0.90;;
44925;SDS011;30662;51.210;7.656;2022-09-09T15:25:55;3.35;;;1.13;;
44925;SDS011;30662;51.210;7.656;2022-09-09T15:28:21;3.65;;;0.77;;
44925;SDS011;30662;51.210;7.656;2022-09-09T15:30:51;2.97;;;0.65;;
44925;SDS011;30662;51.210;7.656;2022-09-09T15:33:21;4.28;;;1.45;;
44925;SDS011;30662;51.210;7.656;2022-09-09T15:35:48;4.93;;;1.00;;
44925;SDS011;30662;51.210;7.656;2022-09-09T15:38:15;1.88;;;0.73;;
44925;SDS011;30662;51.210;7.656;2022-09-09T15:40:42;5.53;;;0.93;;
44925;SDS011;30662;51.210;7.656;2022-09-09T15:43:10;3.63;;;0.77;;
44925;SDS011;30662;51.210;7.656;2022-09-09T15:45:36;6.60;;;0.80;;
44925;SDS011;30662;51.210;7.656;2022-09-09T15:48:03;3.17;;;1.08;;
44925;SDS011;30662;51.210;7.656;2022-09-09T15:50:29;5.95;;;1.27;;
44925;SDS011;30662;51.210;7.656;2022-09-09T15:52:58;4.05;;;1.13;;
44925;SDS011;30662;51.210;7.656;2022-09-09T15:55:25;7.07;;;1.30;;
44925;SDS011;30662;51.210;7.656;2022-09-09T15:57:51;5.05;;;1.40;;
44925;SDS011;30662;51.210;7.656;2022-09-09T16:00:18;4.20;;;1.13;;
44925;SDS011;30662;51.210;7.656;2022-09-09T16:02:48;6.30;;;1.58;;
44925;SDS011;30662;51.210;7.656;2022-09-09T16:05:14;3.28;;;1.08;;
44925;SDS011;30662;51.210;7.656;2022-09-09T16:07:40;8.32;;;2.30;;
44925;SDS011;30662;51.210;7.656;2022-09-09T16:10:08;4.40;;;1.38;;
44925;SDS011;30662;51.210;7.656;2022-09-09T16:12:34;3.58;;;1.00;;
44925;SDS011;30662;51.210;7.656;2022-09-09T16:15:00;3.78;;;0.77;;
44925;SDS011;30662;51.210;7.656;2022-09-09T16:17:26;2.83;;;0.57;;
44925;SDS011;30662;51.210;7.656;2022-09-09T16:19:53;3.50;;;0.98;;
44925;SDS011;30662;51.210;7.656;2022-09-09T16:22:19;3.28;;;0.75;;
44925;SDS011;30662;51.210;7.656;2022-09-09T16:24:45;3.88;;;1.23;;
44925;SDS011;30662;51.210;7.656;2022-09-09T16:27:11;3.70;;;1.05;;
44925;SDS011;30662;51.210;7.656;2022-09-09T16:29:37;4.20;;;1.30;;
44925;SDS011;30662;51.210;7.656;2022-09-09T16:32:03;9.82;;;6.05;;
44925;SDS011;30662;51.210;7.656;2022-09-09T16:34:31;4.43;;;1.05;;
44925;SDS011;30662;51.210;7.656;2022-09-09T16:36:58;2.45;;;0.65;;
44925;SDS011;30662;51.210;7.656;2022-09-09T16:39:24;1.60;;;0.50;;
44925;SDS011;30662;51.210;7.656;2022-09-09T16:41:50;3.53;;;1.00;;
44925;SDS011;30662;51.210;7.656;2022-09-09T16:44:17;2.80;;;0.80;;
44925;SDS011;30662;51.210;7.656;2022-09-09T16:46:45;1.08;;;0.40;;
44925;SDS011;30662;51.210;7.656;2022-09-09T16:49:14;5.13;;;0.70;;
44925;SDS011;30662;51.210;7.656;2022-09-09T16:51:42;3.00;;;0.50;;
44925;SDS011;30662;51.210;7.656;2022-09-09T16:54:10;4.65;;;0.80;;
44925;SDS011;30662;51.210;7.656;2022-09-09T16:56:40;2.45;;;1.02;;
44925;SDS011;30662;51.210;7.656;2022-09-09T16:59:08;2.60;;;1.13;;
44925;SDS011;30662;51.210;7.656;2022-09-09T17:01:39;4.20;;;0.73;;
44925;SDS011;30662;51.210;7.656;2022-09-09T17:04:08;3.22;;;0.90;;
44925;SDS011;30662;51.210;7.656;2022-09-09T17:06:36;3.50;;;1.05;;
44925;SDS011;30662;51.210;7.656;2022-09-09T17:09:04;2.25;;;1.23;;
44925;SDS011;30662;51.210;7.656;2022-09-09T17:11:32;1.55;;;0.95;;
44925;SDS011;30662;51.210;7.656;2022-09-09T17:13:59;1.98;;;0.80;;
44925;SDS011;30662;51.210;7.656;2022-09-09T17:16:26;1.42;;;0.80;;
44925;SDS011;30662;51.210;7.656;2022-09-09T17:18:54;2.45;;;0.70;;
44925;SDS011;30662;51.210;7.656;2022-09-09T17:21:23;3.47;;;0.68;;
44925;SDS011;30662;51.210;7.656;2022-09-09T17:23:53;2.78;;;0.98;;
44925;SDS011;30662;51.210;7.656;2022-09-09T17:26:21;2.15;;;0.60;;
44925;SDS011;30662;51.210;7.656;2022-09-09T17:28:48;3.42;;;0.88;;
44925;SDS011;30662;51.210;7.656;2022-09-09T17:31:16;2.70;;;0.80;;